Dati Storici

Data ora Umidita' aria (%) Temperatura aria (°C) Rad globale (W/m²) Gonioanemometro (°) Tacoanemometro (m/s) Pioggia (mm)
08-11-2012 17:30 76 % 11.166 19.587 64.967 0.312 0
08-11-2012 17:20 76.2 % 11.23 31.213 96.699 0.554 0
08-11-2012 17:10 74.9 % 11.403 32.826 73.873 0.594 0
08-11-2012 17:00 73.5 % 11.712 41.377 97.486 0.388 0
08-11-2012 16:50 72.4 % 11.955 66.37 67.544 1.503 0
08-11-2012 16:40 71.6 % 12.375 68.797 110.796 1.21 0
08-11-2012 16:30 71.3 % 12.48 106.46 88.237 0.933 0
08-11-2012 16:20 71.3 % 12.212 102.66 125.476 1.329 0
08-11-2012 16:10 70.1 % 12.174 112.604 106.435 1.2 0
08-11-2012 16:00 67.6 % 12.62 95.388 109.231 1.399 0
08-11-2012 15:50 65.4 % 13.015 166.845 126.056 1.398 0
08-11-2012 15:40 64.7 % 13.034 249.662 142.703 1.705 0
08-11-2012 15:30 64 % 12.908 268.044 127.628 1.496 0
08-11-2012 15:20 63.5 % 13.44 299.909 117.711 2.402 0
08-11-2012 15:10 63 % 13.757 292.595 92.203 1.02 0
08-11-2012 15:00 63.2 % 13.507 357.593 67.656 1.075 0
08-11-2012 14:50 63.7 % 13.031 407.301 136.728 1.345 0
08-11-2012 14:40 63 % 12.874 398.468 146.877 1.482 0
08-11-2012 14:30 62.6 % 12.958 404.832 137.228 2.068 0
08-11-2012 14:20 60.4 % 13.222 292.737 104.93 1.103 0

I dati sono presentati in modo automatico a scopo informativo. In seguito a verifica i dati possono subire modifiche o essere invalidati e non riportati negli archivi definitivi.